sensor_id;sensor_type;location;lat;lon;timestamp;temperature;humidity
19220;DHT22;9744;49.364;7.484;2022-10-16T00:01:53;13.80;99.90
19220;DHT22;9744;49.364;7.484;2022-10-16T00:04:20;13.20;99.90
19220;DHT22;9744;49.364;7.484;2022-10-16T00:06:48;13.80;99.90
19220;DHT22;9744;49.364;7.484;2022-10-16T00:09:16;13.80;99.90
19220;DHT22;9744;49.364;7.484;2022-10-16T00:11:43;13.80;99.90
19220;DHT22;9744;49.364;7.484;2022-10-16T00:14:13;13.80;99.90
19220;DHT22;9744;49.364;7.484;2022-10-16T00:16:41;13.80;99.90
19220;DHT22;9744;49.364;7.484;2022-10-16T00:19:09;13.80;99.90
19220;DHT22;9744;49.364;7.484;2022-10-16T00:21:37;13.80;99.90
19220;DHT22;9744;49.364;7.484;2022-10-16T00:24:24;13.80;99.90
19220;DHT22;9744;49.364;7.484;2022-10-16T00:26:51;13.80;99.90
19220;DHT22;9744;49.364;7.484;2022-10-16T00:29:18;13.80;99.90
19220;DHT22;9744;49.364;7.484;2022-10-16T00:31:46;13.80;99.90
19220;DHT22;9744;49.364;7.484;2022-10-16T00:34:13;13.80;99.90
19220;DHT22;9744;49.364;7.484;2022-10-16T00:36:40;13.80;99.90
19220;DHT22;9744;49.364;7.484;2022-10-16T00:39:07;13.80;99.90
19220;DHT22;9744;49.364;7.484;2022-10-16T00:41:36;13.80;99.90
19220;DHT22;9744;49.364;7.484;2022-10-16T00:46:46;13.80;99.90
19220;DHT22;9744;49.364;7.484;2022-10-16T00:49:16;13.80;99.90
19220;DHT22;9744;49.364;7.484;2022-10-16T00:51:45;13.80;99.90
19220;DHT22;9744;49.364;7.484;2022-10-16T00:58:15;13.80;99.90
19220;DHT22;9744;49.364;7.484;2022-10-16T01:00:42;13.80;99.90
19220;DHT22;9744;49.364;7.484;2022-10-16T01:03:25;13.80;99.90
19220;DHT22;9744;49.364;7.484;2022-10-16T01:06:02;13.80;99.90
19220;DHT22;9744;49.364;7.484;2022-10-16T01:08:42;13.80;99.90
19220;DHT22;9744;49.364;7.484;2022-10-16T01:11:19;13.80;99.90
19220;DHT22;9744;49.364;7.484;2022-10-16T01:13:54;13.80;99.90
19220;DHT22;9744;49.364;7.484;2022-10-16T01:16:29;13.80;99.90
19220;DHT22;9744;49.364;7.484;2022-10-16T01:19:04;13.80;99.90
19220;DHT22;9744;49.364;7.484;2022-10-16T01:21:36;13.80;99.90
19220;DHT22;9744;49.364;7.484;2022-10-16T01:24:11;13.80;99.90
19220;DHT22;9744;49.364;7.484;2022-10-16T01:29:34;13.70;99.90
19220;DHT22;9744;49.364;7.484;2022-10-16T01:32:06;13.70;99.90
19220;DHT22;9744;49.364;7.484;2022-10-16T01:34:41;13.70;99.90
19220;DHT22;9744;49.364;7.484;2022-10-16T01:37:11;13.70;99.90
19220;DHT22;9744;49.364;7.484;2022-10-16T01:39:41;13.70;99.90
19220;DHT22;9744;49.364;7.484;2022-10-16T01:42:12;13.70;99.90
19220;DHT22;9744;49.364;7.484;2022-10-16T01:44:43;13.60;99.90
19220;DHT22;9744;49.364;7.484;2022-10-16T01:47:13;13.60;99.90
19220;DHT22;9744;49.364;7.484;2022-10-16T01:49:43;13.60;99.90
19220;DHT22;9744;49.364;7.484;2022-10-16T01:52:15;13.50;99.90
19220;DHT22;9744;49.364;7.484;2022-10-16T01:54:46;13.50;99.90
19220;DHT22;9744;49.364;7.484;2022-10-16T01:57:15;13.50;99.90
19220;DHT22;9744;49.364;7.484;2022-10-16T02:03:42;13.50;99.90
19220;DHT22;9744;49.364;7.484;2022-10-16T02:06:10;13.50;99.90
19220;DHT22;9744;49.364;7.484;2022-10-16T02:08:37;13.50;99.90
19220;DHT22;9744;49.364;7.484;2022-10-16T02:11:06;13.50;99.90
19220;DHT22;9744;49.364;7.484;2022-10-16T02:13:37;13.50;99.90
19220;DHT22;9744;49.364;7.484;2022-10-16T02:16:06;13.50;99.90
19220;DHT22;9744;49.364;7.484;2022-10-16T02:18:34;13.50;99.90
19220;DHT22;9744;49.364;7.484;2022-10-16T02:21:07;13.40;99.90
19220;DHT22;9744;49.364;7.484;2022-10-16T02:23:42;13.40;99.90
19220;DHT22;9744;49.364;7.484;2022-10-16T02:26:15;13.40;99.90
19220;DHT22;9744;49.364;7.484;2022-10-16T02:28:46;13.40;99.90
19220;DHT22;9744;49.364;7.484;2022-10-16T02:31:18;13.40;99.90
19220;DHT22;9744;49.364;7.484;2022-10-16T02:33:50;13.40;99.90
19220;DHT22;9744;49.364;7.484;2022-10-16T02:36:19;13.40;99.90
19220;DHT22;9744;49.364;7.484;2022-10-16T02:38:47;13.30;99.90
19220;DHT22;9744;49.364;7.484;2022-10-16T02:41:14;13.30;99.90
19220;DHT22;9744;49.364;7.484;2022-10-16T02:43:42;13.30;99.90
19220;DHT22;9744;49.364;7.484;2022-10-16T02:46:09;13.30;99.90
19220;DHT22;9744;49.364;7.484;2022-10-16T02:48:36;13.30;99.90
19220;DHT22;9744;49.364;7.484;2022-10-16T02:51:05;13.30;99.90
19220;DHT22;9744;49.364;7.484;2022-10-16T02:53:34;13.30;99.90
19220;DHT22;9744;49.364;7.484;2022-10-16T02:56:01;13.30;99.90
19220;DHT22;9744;49.364;7.484;2022-10-16T02:58:28;13.30;99.90
19220;DHT22;9744;49.364;7.484;2022-10-16T03:04:22;13.20;99.90
19220;DHT22;9744;49.364;7.484;2022-10-16T03:06:50;13.20;99.90
19220;DHT22;9744;49.364;7.484;2022-10-16T03:09:18;13.20;99.90
19220;DHT22;9744;49.364;7.484;2022-10-16T03:11:45;13.20;99.90
19220;DHT22;9744;49.364;7.484;2022-10-16T03:14:12;13.20;99.90
19220;DHT22;9744;49.364;7.484;2022-10-16T03:16:40;13.20;99.90
19220;DHT22;9744;49.364;7.484;2022-10-16T03:19:07;13.20;99.90
19220;DHT22;9744;49.364;7.484;2022-10-16T03:21:34;13.20;99.90
19220;DHT22;9744;49.364;7.484;2022-10-16T03:24:01;13.20;99.90
19220;DHT22;9744;49.364;7.484;2022-10-16T03:26:30;13.20;99.90
19220;DHT22;9744;49.364;7.484;2022-10-16T03:28:57;13.20;99.90
19220;DHT22;9744;49.364;7.484;2022-10-16T03:31:56;13.20;99.90
19220;DHT22;9744;49.364;7.484;2022-10-16T03:34:23;13.20;99.90
19220;DHT22;9744;49.364;7.484;2022-10-16T03:36:50;13.20;99.90
19220;DHT22;9744;49.364;7.484;2022-10-16T03:39:17;13.20;99.90
19220;DHT22;9744;49.364;7.484;2022-10-16T03:41:46;13.20;99.90
19220;DHT22;9744;49.364;7.484;2022-10-16T03:44:13;13.20;99.90
19220;DHT22;9744;49.364;7.484;2022-10-16T03:46:41;13.10;99.90
19220;DHT22;9744;49.364;7.484;2022-10-16T03:53:08;13.10;99.90
19220;DHT22;9744;49.364;7.484;2022-10-16T03:55:36;13.00;99.90
19220;DHT22;9744;49.364;7.484;2022-10-16T04:02:05;13.00;99.90
19220;DHT22;9744;49.364;7.484;2022-10-16T04:04:32;13.10;99.90
19220;DHT22;9744;49.364;7.484;2022-10-16T04:06:59;13.00;99.90
19220;DHT22;9744;49.364;7.484;2022-10-16T04:09:27;13.10;99.90
19220;DHT22;9744;49.364;7.484;2022-10-16T04:11:54;13.10;99.90
19220;DHT22;9744;49.364;7.484;2022-10-16T04:14:21;13.10;99.90
19220;DHT22;9744;49.364;7.484;2022-10-16T04:16:48;13.10;99.90
19220;DHT22;9744;49.364;7.484;2022-10-16T04:19:17;13.10;99.90
19220;DHT22;9744;49.364;7.484;2022-10-16T04:21:44;13.00;99.90
19220;DHT22;9744;49.364;7.484;2022-10-16T04:24:11;13.00;99.90
19220;DHT22;9744;49.364;7.484;2022-10-16T04:26:39;13.00;99.90
19220;DHT22;9744;49.364;7.484;2022-10-16T04:29:06;13.00;99.90
19220;DHT22;9744;49.364;7.484;2022-10-16T04:31:33;13.00;99.90
19220;DHT22;9744;49.364;7.484;2022-10-16T04:34:00;13.10;99.90
19220;DHT22;9744;49.364;7.484;2022-10-16T04:36:29;13.10;99.90
19220;DHT22;9744;49.364;7.484;2022-10-16T04:38:56;13.10;99.90
19220;DHT22;9744;49.364;7.484;2022-10-16T04:41:23;13.10;99.90
19220;DHT22;9744;49.364;7.484;2022-10-16T04:47:45;13.10;99.90
19220;DHT22;9744;49.364;7.484;2022-10-16T04:50:12;13.10;99.90
19220;DHT22;9744;49.364;7.484;2022-10-16T04:52:40;13.10;99.90
19220;DHT22;9744;49.364;7.484;2022-10-16T04:55:08;13.10;99.90
19220;DHT22;9744;49.364;7.484;2022-10-16T04:57:35;13.10;99.90
19220;DHT22;9744;49.364;7.484;2022-10-16T05:00:03;13.10;99.90
19220;DHT22;9744;49.364;7.484;2022-10-16T05:02:30;13.20;99.90
19220;DHT22;9744;49.364;7.484;2022-10-16T05:04:57;13.20;99.90
19220;DHT22;9744;49.364;7.484;2022-10-16T05:07:24;13.20;99.90
19220;DHT22;9744;49.364;7.484;2022-10-16T05:13:54;13.20;99.90
19220;DHT22;9744;49.364;7.484;2022-10-16T05:16:21;13.30;99.90
19220;DHT22;9744;49.364;7.484;2022-10-16T05:18:48;13.40;99.90
19220;DHT22;9744;49.364;7.484;2022-10-16T05:21:16;13.40;99.90
19220;DHT22;9744;49.364;7.484;2022-10-16T05:23:43;13.40;99.90
19220;DHT22;9744;49.364;7.484;2022-10-16T05:26:10;13.40;99.90
19220;DHT22;9744;49.364;7.484;2022-10-16T05:28:38;13.40;99.90
19220;DHT22;9744;49.364;7.484;2022-10-16T05:31:07;13.40;99.90
19220;DHT22;9744;49.364;7.484;2022-10-16T05:33:35;13.40;99.90
19220;DHT22;9744;49.364;7.484;2022-10-16T05:36:03;13.40;99.90
19220;DHT22;9744;49.364;7.484;2022-10-16T05:38:31;13.40;99.90
19220;DHT22;9744;49.364;7.484;2022-10-16T05:40:58;13.50;99.90
19220;DHT22;9744;49.364;7.484;2022-10-16T05:43:27;13.50;99.90
19220;DHT22;9744;49.364;7.484;2022-10-16T05:45:55;13.50;99.90
19220;DHT22;9744;49.364;7.484;2022-10-16T05:48:24;13.50;99.90
19220;DHT22;9744;49.364;7.484;2022-10-16T05:51:02;13.60;99.90
19220;DHT22;9744;49.364;7.484;2022-10-16T05:53:31;13.60;99.90
19220;DHT22;9744;49.364;7.484;2022-10-16T05:55:59;13.60;99.90
19220;DHT22;9744;49.364;7.484;2022-10-16T05:58:29;13.60;99.90
19220;DHT22;9744;49.364;7.484;2022-10-16T06:00:57;13.60;99.90
19220;DHT22;9744;49.364;7.484;2022-10-16T06:03:26;13.60;99.90
19220;DHT22;9744;49.364;7.484;2022-10-16T06:05:54;13.60;99.90
19220;DHT22;9744;49.364;7.484;2022-10-16T06:08:22;13.60;99.90
19220;DHT22;9744;49.364;7.484;2022-10-16T06:14:21;13.70;99.90
19220;DHT22;9744;49.364;7.484;2022-10-16T06:16:48;13.70;99.90
19220;DHT22;9744;49.364;7.484;2022-10-16T06:19:17;13.70;99.90
19220;DHT22;9744;49.364;7.484;2022-10-16T06:21:44;13.70;99.90
19220;DHT22;9744;49.364;7.484;2022-10-16T06:24:12;13.70;99.90
19220;DHT22;9744;49.364;7.484;2022-10-16T06:26:39;13.70;99.90
19220;DHT22;9744;49.364;7.484;2022-10-16T06:29:08;13.70;99.90
19220;DHT22;9744;49.364;7.484;2022-10-16T06:31:35;13.70;99.90
19220;DHT22;9744;49.364;7.484;2022-10-16T06:34:02;13.70;99.90
19220;DHT22;9744;49.364;7.484;2022-10-16T06:36:57;13.70;99.90
19220;DHT22;9744;49.364;7.484;2022-10-16T06:39:25;13.80;99.90
19220;DHT22;9744;49.364;7.484;2022-10-16T06:41:52;13.80;99.90
19220;DHT22;9744;49.364;7.484;2022-10-16T06:44:20;13.80;99.90
19220;DHT22;9744;49.364;7.484;2022-10-16T06:46:47;13.80;99.90
19220;DHT22;9744;49.364;7.484;2022-10-16T06:49:14;13.90;99.90
19220;DHT22;9744;49.364;7.484;2022-10-16T06:51:47;13.90;99.90
19220;DHT22;9744;49.364;7.484;2022-10-16T06:54:15;13.90;99.90
19220;DHT22;9744;49.364;7.484;2022-10-16T06:56:43;13.90;99.90
19220;DHT22;9744;49.364;7.484;2022-10-16T06:59:11;13.90;99.90
19220;DHT22;9744;49.364;7.484;2022-10-16T07:01:38;13.90;99.90
19220;DHT22;9744;49.364;7.484;2022-10-16T07:07:59;13.90;99.90
19220;DHT22;9744;49.364;7.484;2022-10-16T07:10:28;14.00;99.90
19220;DHT22;9744;49.364;7.484;2022-10-16T07:12:55;14.00;99.90
19220;DHT22;9744;49.364;7.484;2022-10-16T07:19:30;14.00;99.90
19220;DHT22;9744;49.364;7.484;2022-10-16T07:25:58;14.00;99.90
19220;DHT22;9744;49.364;7.484;2022-10-16T07:28:25;14.10;99.90
19220;DHT22;9744;49.364;7.484;2022-10-16T07:30:53;14.10;99.90
19220;DHT22;9744;49.364;7.484;2022-10-16T07:33:20;14.10;99.90
19220;DHT22;9744;49.364;7.484;2022-10-16T07:35:49;14.10;99.90
19220;DHT22;9744;49.364;7.484;2022-10-16T07:38:16;14.10;99.90
19220;DHT22;9744;49.364;7.484;2022-10-16T07:40:44;14.10;99.90
19220;DHT22;9744;49.364;7.484;2022-10-16T07:43:13;14.10;99.90
19220;DHT22;9744;49.364;7.484;2022-10-16T07:45:46;14.10;99.90
19220;DHT22;9744;49.364;7.484;2022-10-16T07:48:14;14.10;99.90
19220;DHT22;9744;49.364;7.484;2022-10-16T07:54:34;14.20;99.90
19220;DHT22;9744;49.364;7.484;2022-10-16T07:57:02;14.20;99.90
19220;DHT22;9744;49.364;7.484;2022-10-16T07:59:30;14.20;99.90
19220;DHT22;9744;49.364;7.484;2022-10-16T08:01:58;14.30;99.90
19220;DHT22;9744;49.364;7.484;2022-10-16T08:08:19;14.40;99.90
19220;DHT22;9744;49.364;7.484;2022-10-16T08:10:46;14.40;99.90
19220;DHT22;9744;49.364;7.484;2022-10-16T08:13:13;14.40;99.90
19220;DHT22;9744;49.364;7.484;2022-10-16T08:15:42;14.40;99.90
19220;DHT22;9744;49.364;7.484;2022-10-16T08:18:10;14.40;99.90
19220;DHT22;9744;49.364;7.484;2022-10-16T08:20:39;14.50;99.90
19220;DHT22;9744;49.364;7.484;2022-10-16T08:23:06;14.50;99.90
19220;DHT22;9744;49.364;7.484;2022-10-16T08:25:34;14.50;99.90
19220;DHT22;9744;49.364;7.484;2022-10-16T08:28:03;14.50;99.90
19220;DHT22;9744;49.364;7.484;2022-10-16T08:30:31;14.50;99.90
19220;DHT22;9744;49.364;7.484;2022-10-16T08:33:01;14.50;99.90
19220;DHT22;9744;49.364;7.484;2022-10-16T08:35:28;14.60;99.90
19220;DHT22;9744;49.364;7.484;2022-10-16T08:37:55;14.60;99.90
19220;DHT22;9744;49.364;7.484;2022-10-16T08:40:25;14.60;99.90
19220;DHT22;9744;49.364;7.484;2022-10-16T08:43:17;14.70;99.90
19220;DHT22;9744;49.364;7.484;2022-10-16T08:45:57;14.70;99.90
19220;DHT22;9744;49.364;7.484;2022-10-16T08:48:38;14.80;99.90
19220;DHT22;9744;49.364;7.484;2022-10-16T08:51:08;14.80;99.90
19220;DHT22;9744;49.364;7.484;2022-10-16T08:57:32;14.90;99.90
19220;DHT22;9744;49.364;7.484;2022-10-16T09:00:05;14.90;99.90
19220;DHT22;9744;49.364;7.484;2022-10-16T09:02:36;15.00;99.90
19220;DHT22;9744;49.364;7.484;2022-10-16T09:05:29;15.10;99.90
19220;DHT22;9744;49.364;7.484;2022-10-16T09:08:07;15.20;99.90
19220;DHT22;9744;49.364;7.484;2022-10-16T09:13:40;15.40;99.90
19220;DHT22;9744;49.364;7.484;2022-10-16T09:16:17;15.40;99.90
19220;DHT22;9744;49.364;7.484;2022-10-16T09:18:54;15.50;99.90
19220;DHT22;9744;49.364;7.484;2022-10-16T09:21:27;15.50;99.90
19220;DHT22;9744;49.364;7.484;2022-10-16T09:23:58;15.70;99.90
19220;DHT22;9744;49.364;7.484;2022-10-16T09:26:26;15.80;99.90
19220;DHT22;9744;49.364;7.484;2022-10-16T09:28:53;16.00;99.90
19220;DHT22;9744;49.364;7.484;2022-10-16T09:31:22;16.10;99.90
19220;DHT22;9744;49.364;7.484;2022-10-16T09:33:53;16.20;99.90
19220;DHT22;9744;49.364;7.484;2022-10-16T09:36:25;16.40;99.90
19220;DHT22;9744;49.364;7.484;2022-10-16T09:39:04;16.40;99.90
19220;DHT22;9744;49.364;7.484;2022-10-16T09:41:34;16.50;99.90
19220;DHT22;9744;49.364;7.484;2022-10-16T09:44:04;16.50;99.90
19220;DHT22;9744;49.364;7.484;2022-10-16T09:46:34;16.50;99.90
19220;DHT22;9744;49.364;7.484;2022-10-16T09:49:03;16.50;99.90
19220;DHT22;9744;49.364;7.484;2022-10-16T09:51:34;16.60;99.90
19220;DHT22;9744;49.364;7.484;2022-10-16T09:54:13;16.70;99.90
19220;DHT22;9744;49.364;7.484;2022-10-16T09:56:41;16.70;99.90
19220;DHT22;9744;49.364;7.484;2022-10-16T09:59:13;16.70;99.90
19220;DHT22;9744;49.364;7.484;2022-10-16T10:01:45;16.60;99.90
19220;DHT22;9744;49.364;7.484;2022-10-16T10:04:13;16.70;99.90
19220;DHT22;9744;49.364;7.484;2022-10-16T10:06:44;16.80;99.90
19220;DHT22;9744;49.364;7.484;2022-10-16T10:09:20;16.90;99.90
19220;DHT22;9744;49.364;7.484;2022-10-16T10:11:52;16.90;99.90
19220;DHT22;9744;49.364;7.484;2022-10-16T10:14:28;16.90;99.90
19220;DHT22;9744;49.364;7.484;2022-10-16T10:17:19;17.00;99.90
19220;DHT22;9744;49.364;7.484;2022-10-16T10:19:49;17.10;99.90
19220;DHT22;9744;49.364;7.484;2022-10-16T10:22:22;17.20;99.90
19220;DHT22;9744;49.364;7.484;2022-10-16T10:28:02;17.30;99.90
19220;DHT22;9744;49.364;7.484;2022-10-16T10:30:36;17.40;99.90
19220;DHT22;9744;49.364;7.484;2022-10-16T10:33:26;17.40;99.90
19220;DHT22;9744;49.364;7.484;2022-10-16T10:36:02;17.40;99.90
19220;DHT22;9744;49.364;7.484;2022-10-16T10:38:41;17.30;99.90
19220;DHT22;9744;49.364;7.484;2022-10-16T10:41:26;17.30;99.90
19220;DHT22;9744;49.364;7.484;2022-10-16T10:44:01;17.20;99.90
19220;DHT22;9744;49.364;7.484;2022-10-16T10:46:34;17.20;99.90
19220;DHT22;9744;49.364;7.484;2022-10-16T10:49:27;17.20;99.90
19220;DHT22;9744;49.364;7.484;2022-10-16T10:52:05;17.00;99.90
19220;DHT22;9744;49.364;7.484;2022-10-16T10:54:41;16.90;99.90
19220;DHT22;9744;49.364;7.484;2022-10-16T10:57:21;16.90;99.90
19220;DHT22;9744;49.364;7.484;2022-10-16T10:59:58;16.90;99.90
19220;DHT22;9744;49.364;7.484;2022-10-16T11:02:34;16.90;99.90
19220;DHT22;9744;49.364;7.484;2022-10-16T11:05:36;16.90;99.90
19220;DHT22;9744;49.364;7.484;2022-10-16T11:08:10;17.10;99.90
19220;DHT22;9744;49.364;7.484;2022-10-16T11:10:47;17.20;99.90
19220;DHT22;9744;49.364;7.484;2022-10-16T11:13:23;17.30;99.90
19220;DHT22;9744;49.364;7.484;2022-10-16T11:15:58;17.30;99.90
19220;DHT22;9744;49.364;7.484;2022-10-16T11:18:32;17.30;99.90
19220;DHT22;9744;49.364;7.484;2022-10-16T11:21:05;17.30;99.90
19220;DHT22;9744;49.364;7.484;2022-10-16T11:23:38;17.40;99.90
19220;DHT22;9744;49.364;7.484;2022-10-16T11:26:14;17.40;99.90
19220;DHT22;9744;49.364;7.484;2022-10-16T11:28:45;17.50;99.90
19220;DHT22;9744;49.364;7.484;2022-10-16T11:31:19;17.40;99.90
19220;DHT22;9744;49.364;7.484;2022-10-16T11:33:53;17.40;99.90
19220;DHT22;9744;49.364;7.484;2022-10-16T11:36:25;17.40;99.90
19220;DHT22;9744;49.364;7.484;2022-10-16T11:38:58;17.40;99.90
19220;DHT22;9744;49.364;7.484;2022-10-16T11:41:33;17.40;99.90
19220;DHT22;9744;49.364;7.484;2022-10-16T11:44:14;17.30;99.90
19220;DHT22;9744;49.364;7.484;2022-10-16T11:46:46;17.40;99.90
19220;DHT22;9744;49.364;7.484;2022-10-16T11:49:17;17.40;99.90
19220;DHT22;9744;49.364;7.484;2022-10-16T11:51:50;17.40;99.90
19220;DHT22;9744;49.364;7.484;2022-10-16T11:54:24;17.40;99.90
19220;DHT22;9744;49.364;7.484;2022-10-16T11:57:01;17.60;99.90
19220;DHT22;9744;49.364;7.484;2022-10-16T11:59:34;17.80;99.90
19220;DHT22;9744;49.364;7.484;2022-10-16T12:02:25;18.10;99.90
19220;DHT22;9744;49.364;7.484;2022-10-16T12:05:01;18.20;99.90
19220;DHT22;9744;49.364;7.484;2022-10-16T12:07:35;18.30;99.90
19220;DHT22;9744;49.364;7.484;2022-10-16T12:10:11;18.30;99.90
19220;DHT22;9744;49.364;7.484;2022-10-16T12:12:47;18.30;99.90
19220;DHT22;9744;49.364;7.484;2022-10-16T12:15:23;18.30;99.90
19220;DHT22;9744;49.364;7.484;2022-10-16T12:17:51;18.30;99.90
19220;DHT22;9744;49.364;7.484;2022-10-16T12:20:25;18.20;99.90
19220;DHT22;9744;49.364;7.484;2022-10-16T12:22:55;18.20;99.90
19220;DHT22;9744;49.364;7.484;2022-10-16T12:25:26;18.20;99.90
19220;DHT22;9744;49.364;7.484;2022-10-16T12:27:57;18.20;99.90
19220;DHT22;9744;49.364;7.484;2022-10-16T12:30:26;18.20;99.90
19220;DHT22;9744;49.364;7.484;2022-10-16T12:32:55;18.10;99.90
19220;DHT22;9744;49.364;7.484;2022-10-16T12:35:25;18.10;99.90
19220;DHT22;9744;49.364;7.484;2022-10-16T12:37:53;18.20;99.90
19220;DHT22;9744;49.364;7.484;2022-10-16T12:40:27;18.20;99.90
19220;DHT22;9744;49.364;7.484;2022-10-16T12:42:56;18.20;99.90
19220;DHT22;9744;49.364;7.484;2022-10-16T12:45:26;18.10;99.90
19220;DHT22;9744;49.364;7.484;2022-10-16T12:47:54;18.10;99.90
19220;DHT22;9744;49.364;7.484;2022-10-16T12:50:32;18.10;99.90
19220;DHT22;9744;49.364;7.484;2022-10-16T12:53:01;18.10;99.90
19220;DHT22;9744;49.364;7.484;2022-10-16T12:55:35;18.10;99.90
19220;DHT22;9744;49.364;7.484;2022-10-16T12:58:35;18.10;99.90
19220;DHT22;9744;49.364;7.484;2022-10-16T13:01:13;18.10;99.90
19220;DHT22;9744;49.364;7.484;2022-10-16T13:04:16;18.10;99.90
19220;DHT22;9744;49.364;7.484;2022-10-16T13:06:53;18.10;99.90
19220;DHT22;9744;49.364;7.484;2022-10-16T13:09:34;18.00;99.90
19220;DHT22;9744;49.364;7.484;2022-10-16T13:12:20;17.90;99.90
19220;DHT22;9744;49.364;7.484;2022-10-16T13:15:19;17.90;99.90
19220;DHT22;9744;49.364;7.484;2022-10-16T13:17:55;17.80;99.90
19220;DHT22;9744;49.364;7.484;2022-10-16T13:20:32;17.70;99.90
19220;DHT22;9744;49.364;7.484;2022-10-16T13:23:09;17.70;99.90
19220;DHT22;9744;49.364;7.484;2022-10-16T13:25:49;17.70;99.90
19220;DHT22;9744;49.364;7.484;2022-10-16T13:28:26;17.60;99.90
19220;DHT22;9744;49.364;7.484;2022-10-16T13:30:57;17.60;99.90
19220;DHT22;9744;49.364;7.484;2022-10-16T13:33:32;17.60;99.90
19220;DHT22;9744;49.364;7.484;2022-10-16T13:35:59;17.60;99.90
19220;DHT22;9744;49.364;7.484;2022-10-16T13:38:28;17.60;99.90
19220;DHT22;9744;49.364;7.484;2022-10-16T13:40:56;17.60;99.90
19220;DHT22;9744;49.364;7.484;2022-10-16T13:43:27;17.60;99.90
19220;DHT22;9744;49.364;7.484;2022-10-16T13:45:59;17.60;99.90
19220;DHT22;9744;49.364;7.484;2022-10-16T13:48:28;17.60;99.90
19220;DHT22;9744;49.364;7.484;2022-10-16T13:50:59;17.60;99.90
19220;DHT22;9744;49.364;7.484;2022-10-16T13:53:27;17.60;99.90
19220;DHT22;9744;49.364;7.484;2022-10-16T13:55:54;17.70;99.90
19220;DHT22;9744;49.364;7.484;2022-10-16T13:58:22;17.70;99.90
19220;DHT22;9744;49.364;7.484;2022-10-16T14:00:58;17.80;99.90
19220;DHT22;9744;49.364;7.484;2022-10-16T14:03:26;17.80;99.90
19220;DHT22;9744;49.364;7.484;2022-10-16T14:05:55;17.90;99.90
19220;DHT22;9744;49.364;7.484;2022-10-16T14:08:25;17.90;99.90
19220;DHT22;9744;49.364;7.484;2022-10-16T14:10:54;18.00;99.90
19220;DHT22;9744;49.364;7.484;2022-10-16T14:13:29;18.10;99.90
19220;DHT22;9744;49.364;7.484;2022-10-16T14:16:01;18.10;99.90
19220;DHT22;9744;49.364;7.484;2022-10-16T14:18:29;18.10;99.90
19220;DHT22;9744;49.364;7.484;2022-10-16T14:21:03;18.20;99.90
19220;DHT22;9744;49.364;7.484;2022-10-16T14:23:32;18.30;99.90
19220;DHT22;9744;49.364;7.484;2022-10-16T14:26:15;18.40;99.90
19220;DHT22;9744;49.364;7.484;2022-10-16T14:28:43;18.60;99.90
19220;DHT22;9744;49.364;7.484;2022-10-16T14:31:29;18.60;99.90
19220;DHT22;9744;49.364;7.484;2022-10-16T14:33:57;18.70;99.90
19220;DHT22;9744;49.364;7.484;2022-10-16T14:36:25;18.80;99.90
19220;DHT22;9744;49.364;7.484;2022-10-16T14:39:02;18.80;99.90
19220;DHT22;9744;49.364;7.484;2022-10-16T14:41:30;18.80;99.90
19220;DHT22;9744;49.364;7.484;2022-10-16T14:44:01;18.80;99.90
19220;DHT22;9744;49.364;7.484;2022-10-16T14:46:33;18.80;99.90
19220;DHT22;9744;49.364;7.484;2022-10-16T14:49:04;18.80;99.90
19220;DHT22;9744;49.364;7.484;2022-10-16T14:51:33;18.90;99.90
19220;DHT22;9744;49.364;7.484;2022-10-16T14:54:00;18.90;99.90
19220;DHT22;9744;49.364;7.484;2022-10-16T14:56:30;18.90;99.90
19220;DHT22;9744;49.364;7.484;2022-10-16T14:58:57;19.00;99.90
19220;DHT22;9744;49.364;7.484;2022-10-16T15:01:25;19.10;99.90
19220;DHT22;9744;49.364;7.484;2022-10-16T15:03:53;19.10;99.90
19220;DHT22;9744;49.364;7.484;2022-10-16T15:06:21;19.10;99.90
19220;DHT22;9744;49.364;7.484;2022-10-16T15:08:48;18.90;99.90
19220;DHT22;9744;49.364;7.484;2022-10-16T15:11:17;18.80;99.90
19220;DHT22;9744;49.364;7.484;2022-10-16T15:13:45;18.60;99.90
19220;DHT22;9744;49.364;7.484;2022-10-16T15:16:14;18.50;99.90
19220;DHT22;9744;49.364;7.484;2022-10-16T15:18:42;18.40;99.90
19220;DHT22;9744;49.364;7.484;2022-10-16T15:21:22;18.30;99.90
19220;DHT22;9744;49.364;7.484;2022-10-16T15:23:50;18.30;99.90
19220;DHT22;9744;49.364;7.484;2022-10-16T15:26:17;18.30;99.90
19220;DHT22;9744;49.364;7.484;2022-10-16T15:28:45;18.30;99.90
19220;DHT22;9744;49.364;7.484;2022-10-16T15:31:12;18.20;99.90
19220;DHT22;9744;49.364;7.484;2022-10-16T15:33:39;18.30;99.90
19220;DHT22;9744;49.364;7.484;2022-10-16T15:36:07;18.40;99.90
19220;DHT22;9744;49.364;7.484;2022-10-16T15:38:36;18.50;99.90
19220;DHT22;9744;49.364;7.484;2022-10-16T15:41:03;18.60;99.90
19220;DHT22;9744;49.364;7.484;2022-10-16T15:43:30;18.70;99.90
19220;DHT22;9744;49.364;7.484;2022-10-16T15:46:03;18.80;99.90
19220;DHT22;9744;49.364;7.484;2022-10-16T15:48:31;18.80;99.90
19220;DHT22;9744;49.364;7.484;2022-10-16T15:50:59;18.80;99.90
19220;DHT22;9744;49.364;7.484;2022-10-16T15:53:26;18.80;99.90
19220;DHT22;9744;49.364;7.484;2022-10-16T15:55:55;18.90;99.90
19220;DHT22;9744;49.364;7.484;2022-10-16T15:58:22;18.90;99.90
19220;DHT22;9744;49.364;7.484;2022-10-16T16:00:54;18.90;99.90
19220;DHT22;9744;49.364;7.484;2022-10-16T16:03:22;18.80;99.90
19220;DHT22;9744;49.364;7.484;2022-10-16T16:05:49;18.80;99.90
19220;DHT22;9744;49.364;7.484;2022-10-16T16:08:17;18.80;99.90
19220;DHT22;9744;49.364;7.484;2022-10-16T16:10:44;18.80;99.90
19220;DHT22;9744;49.364;7.484;2022-10-16T16:13:12;18.70;99.90
19220;DHT22;9744;49.364;7.484;2022-10-16T16:15:40;18.70;99.90
19220;DHT22;9744;49.364;7.484;2022-10-16T16:18:07;18.60;99.90
19220;DHT22;9744;49.364;7.484;2022-10-16T16:20:35;18.60;99.90
19220;DHT22;9744;49.364;7.484;2022-10-16T16:23:02;18.50;99.90
19220;DHT22;9744;49.364;7.484;2022-10-16T16:25:30;18.40;99.90
19220;DHT22;9744;49.364;7.484;2022-10-16T16:27:57;18.30;99.90
19220;DHT22;9744;49.364;7.484;2022-10-16T16:30:28;18.20;99.90
19220;DHT22;9744;49.364;7.484;2022-10-16T16:32:55;18.10;99.90
19220;DHT22;9744;49.364;7.484;2022-10-16T16:35:22;18.00;99.90
19220;DHT22;9744;49.364;7.484;2022-10-16T16:37:49;17.90;99.90
19220;DHT22;9744;49.364;7.484;2022-10-16T16:40:16;17.80;99.90
19220;DHT22;9744;49.364;7.484;2022-10-16T16:42:43;17.70;99.90
19220;DHT22;9744;49.364;7.484;2022-10-16T16:45:10;17.60;99.90
19220;DHT22;9744;49.364;7.484;2022-10-16T16:47:39;17.50;99.90
19220;DHT22;9744;49.364;7.484;2022-10-16T16:50:07;17.40;99.90
19220;DHT22;9744;49.364;7.484;2022-10-16T16:52:34;17.30;99.90
19220;DHT22;9744;49.364;7.484;2022-10-16T16:55:05;17.20;99.90
19220;DHT22;9744;49.364;7.484;2022-10-16T16:57:33;17.10;99.90
19220;DHT22;9744;49.364;7.484;2022-10-16T17:00:00;17.00;99.90
19220;DHT22;9744;49.364;7.484;2022-10-16T17:02:27;16.90;99.90
19220;DHT22;9744;49.364;7.484;2022-10-16T17:04:55;16.90;99.90
19220;DHT22;9744;49.364;7.484;2022-10-16T17:07:23;16.90;99.90
19220;DHT22;9744;49.364;7.484;2022-10-16T17:09:51;16.80;99.90
19220;DHT22;9744;49.364;7.484;2022-10-16T17:12:18;16.70;99.90
19220;DHT22;9744;49.364;7.484;2022-10-16T17:14:45;16.60;99.90